Time;durP1;ratioP1;P1;durP2;ratioP2;P2;SDS_P1;SDS_P2;PMS_P1;PMS_P2;Temp;Humidity;BMP_temperature;BMP_pressure;BME280_temperature;BME280_humidity;BME280_pressure;Samples;Min_cycle;Max_cycle;Signal;HPM_P1;HPM_P2
2022/09/27 00:00:14;;;;;;;4.20;2.53;;;9.40;99.90;;;;;;5000700;28;20219;-90
2022/09/27 00:02:43;;;;;;;3.60;2.37;;;9.40;99.90;;;;;;4998879;28;20220;-91
2022/09/27 00:05:09;;;;;;;3.70;2.47;;;9.40;99.90;;;;;;4988239;28;20233;-91
2022/09/27 00:07:36;;;;;;;2.27;2.03;;;9.40;99.90;;;;;;5000893;28;20226;-91
2022/09/27 00:10:04;;;;;;;4.30;2.47;;;9.40;99.90;;;;;;4983566;28;20250;-91
2022/09/27 00:12:31;;;;;;;3.07;2.30;;;9.40;99.90;;;;;;4997010;28;20228;-92
2022/09/27 00:14:58;;;;;;;4.93;2.50;;;9.40;99.90;;;;;;4985306;28;20459;-91
2022/09/27 00:17:26;;;;;;;2.70;1.90;;;9.40;99.90;;;;;;4985300;28;20280;-91
2022/09/27 00:19:55;;;;;;;3.27;2.37;;;9.40;99.90;;;;;;5002177;28;20235;-91
2022/09/27 00:22:21;;;;;;;3.90;2.13;;;9.40;99.90;;;;;;4985102;28;20323;-92
2022/09/27 00:24:48;;;;;;;2.27;2.07;;;9.40;99.90;;;;;;5000376;28;20372;-92
2022/09/27 00:27:15;;;;;;;2.73;2.40;;;9.50;99.90;;;;;;5000102;28;20212;-92
2022/09/27 00:29:42;;;;;;;3.97;2.80;;;9.40;99.90;;;;;;4980402;28;20236;-92
2022/09/27 00:32:08;;;;;;;4.07;2.40;;;9.40;99.90;;;;;;4982460;28;20499;-91
2022/09/27 00:34:36;;;;;;;3.27;2.80;;;9.40;99.90;;;;;;4985879;28;20228;-92
2022/09/27 00:37:04;;;;;;;3.27;2.23;;;9.40;99.90;;;;;;4981908;28;20231;-92
2022/09/27 00:39:31;;;;;;;2.43;2.23;;;9.40;99.90;;;;;;4981211;28;20221;-91
2022/09/27 00:41:58;;;;;;;4.20;2.43;;;9.40;99.90;;;;;;5000204;28;20244;-91
2022/09/27 00:44:55;;;;;;;4.23;2.60;;;9.40;99.90;;;;;;4995334;28;20235;-91
2022/09/27 00:47:27;;;;;;;2.63;2.43;;;9.40;99.90;;;;;;4999499;28;20291;-92
2022/09/27 00:50:00;;;;;;;3.07;2.40;;;9.30;99.90;;;;;;4986081;28;20230;-93
2022/09/27 00:52:36;;;;;;;2.97;2.40;;;9.40;99.90;;;;;;4982129;28;20238;-92
2022/09/27 00:55:11;;;;;;;3.00;2.63;;;9.40;99.90;;;;;;4983362;28;20228;-92
2022/09/27 00:57:38;;;;;;;2.97;2.73;;;9.30;99.90;;;;;;4999876;28;20215;-92
2022/09/27 01:00:08;;;;;;;2.83;2.63;;;9.40;99.90;;;;;;4997529;28;20228;-91
2022/09/27 01:02:37;;;;;;;3.53;2.50;;;9.30;99.90;;;;;;4984210;28;20225;-92
2022/09/27 01:05:05;;;;;;;4.37;2.63;;;9.30;99.90;;;;;;4999894;28;20230;-92
2022/09/27 01:07:33;;;;;;;3.57;2.53;;;9.30;99.90;;;;;;4985588;28;20489;-92
2022/09/27 01:10:00;;;;;;;3.70;2.60;;;9.30;99.90;;;;;;4998570;28;20222;-91
2022/09/27 01:12:37;;;;;;;3.67;2.80;;;9.30;99.90;;;;;;4979426;28;20239;-91
2022/09/27 01:15:15;;;;;;;3.30;2.70;;;9.30;99.90;;;;;;4992733;28;20231;-92
2022/09/27 01:17:51;;;;;;;3.00;2.67;;;9.30;99.90;;;;;;5001746;28;20228;-92
2022/09/27 01:20:58;;;;;;;4.13;2.87;;;9.30;99.90;;;;;;4998714;28;20295;-92
2022/09/27 01:23:48;;;;;;;3.37;3.07;;;9.30;99.90;;;;;;4999539;28;20264;-92
2022/09/27 01:26:25;;;;;;;3.37;2.47;;;9.30;99.90;;;;;;4981043;28;20227;-93
2022/09/27 01:29:03;;;;;;;3.63;2.80;;;9.30;99.90;;;;;;4984134;28;20215;-92
2022/09/27 01:31:38;;;;;;;3.20;2.73;;;9.40;99.90;;;;;;5002624;28;20217;-91
2022/09/27 01:34:12;;;;;;;3.27;2.50;;;9.30;99.90;;;;;;5001260;28;20220;-91
2022/09/27 01:36:48;;;;;;;3.73;2.70;;;9.30;99.90;;;;;;4985725;28;20232;-92
2022/09/27 01:39:31;;;;;;;3.00;2.70;;;9.30;99.90;;;;;;4998891;28;20663;-91
2022/09/27 01:42:34;;;;;;;3.90;2.47;;;9.30;99.90;;;;;;4999085;28;20311;-91
2022/09/27 01:45:06;;;;;;;5.10;3.20;;;9.30;99.90;;;;;;4985980;28;20274;-92
2022/09/27 01:47:47;;;;;;;3.27;2.90;;;9.30;99.90;;;;;;4986476;28;20209;-91
2022/09/27 01:50:58;;;;;;;4.50;2.97;;;9.40;99.90;;;;;;4992134;28;20259;-91
2022/09/27 01:53:30;;;;;;;3.57;2.40;;;9.40;99.90;;;;;;5006814;28;20318;-92
2022/09/27 01:56:16;;;;;;;3.30;2.77;;;9.40;99.90;;;;;;5009169;28;20204;-91
2022/09/27 01:58:54;;;;;;;3.43;2.40;;;9.40;99.90;;;;;;4995087;28;20272;-92
2022/09/27 02:01:24;;;;;;;4.10;2.80;;;9.40;99.90;;;;;;5007959;28;20223;-91
2022/09/27 02:03:56;;;;;;;2.97;2.67;;;9.40;99.90;;;;;;4988178;28;20248;-91
2022/09/27 02:06:53;;;;;;;3.63;2.60;;;9.40;99.90;;;;;;5010170;28;20535;-90
2022/09/27 02:09:27;;;;;;;3.77;2.87;;;9.40;99.90;;;;;;5008953;28;20216;-91
2022/09/27 02:12:25;;;;;;;2.80;2.60;;;9.40;99.90;;;;;;4999327;28;20220;-90
2022/09/27 02:14:58;;;;;;;2.83;2.53;;;9.40;99.90;;;;;;5003283;28;20223;-91
2022/09/27 02:17:36;;;;;;;3.00;2.70;;;9.40;99.90;;;;;;5001596;28;20227;-91
2022/09/27 02:20:11;;;;;;;3.17;2.30;;;9.40;99.90;;;;;;5002635;28;20225;-90
2022/09/27 02:22:53;;;;;;;3.37;2.90;;;9.40;99.90;;;;;;4994163;28;20225;-90
2022/09/27 02:25:24;;;;;;;5.00;2.70;;;9.40;99.90;;;;;;5003373;28;20209;-90
2022/09/27 02:28:00;;;;;;;3.37;2.60;;;9.40;99.90;;;;;;5004034;28;20220;-91
2022/09/27 02:30:31;;;;;;;3.07;2.77;;;9.40;99.90;;;;;;5001620;28;20321;-92
2022/09/27 02:33:07;;;;;;;4.87;2.90;;;9.40;99.90;;;;;;5001401;28;20254;-90
2022/09/27 02:35:36;;;;;;;3.20;2.87;;;9.40;99.90;;;;;;5002486;28;20238;-91
2022/09/27 02:38:05;;;;;;;3.27;2.60;;;9.40;99.90;;;;;;4988868;28;20230;-91
2022/09/27 02:40:34;;;;;;;2.87;2.67;;;9.50;99.90;;;;;;4984523;28;20227;-92
2022/09/27 02:43:03;;;;;;;3.10;2.80;;;9.40;99.90;;;;;;4999819;28;20222;-91
2022/09/27 02:45:37;;;;;;;6.27;2.90;;;9.40;99.90;;;;;;5001049;28;20287;-91
2022/09/27 02:48:17;;;;;;;5.00;2.73;;;9.40;99.90;;;;;;5000036;28;20233;-91
2022/09/27 02:51:31;;;;;;;3.93;2.70;;;9.40;99.90;;;;;;5003505;28;20282;-91
2022/09/27 02:54:09;;;;;;;4.07;2.80;;;9.40;99.90;;;;;;4969682;28;20226;-91
2022/09/27 02:57:07;;;;;;;32.63;5.40;;;9.50;99.90;;;;;;5005684;28;20268;-91
2022/09/27 03:00:03;;;;;;;3.03;2.77;;;9.40;99.90;;;;;;4999617;28;20251;-91
2022/09/27 03:02:51;;;;;;;3.30;3.00;;;9.40;99.90;;;;;;4982575;28;21073;-92
2022/09/27 03:05:42;;;;;;;3.03;2.73;;;9.40;99.90;;;;;;4982560;28;20229;-93
2022/09/27 03:08:11;;;;;;;4.63;3.37;;;9.40;99.90;;;;;;5001292;28;20290;-91
2022/09/27 03:10:39;;;;;;;4.10;3.20;;;9.50;99.90;;;;;;4988511;28;20232;-91
2022/09/27 03:13:06;;;;;;;5.37;3.13;;;9.40;99.90;;;;;;5003035;28;20310;-91
2022/09/27 03:15:33;;;;;;;4.10;3.30;;;9.40;99.90;;;;;;4987736;28;20227;-92
2022/09/27 03:18:00;;;;;;;3.70;3.40;;;9.40;99.90;;;;;;5003817;28;20288;-91
2022/09/27 03:20:42;;;;;;;3.90;3.13;;;9.50;99.90;;;;;;5001957;28;20231;-92
2022/09/27 03:23:12;;;;;;;3.70;3.20;;;9.50;99.90;;;;;;4998961;28;20271;-91
2022/09/27 03:25:40;;;;;;;4.43;3.30;;;9.50;99.90;;;;;;4999749;28;20227;-92
2022/09/27 03:28:08;;;;;;;4.87;3.67;;;9.50;99.90;;;;;;4996978;28;20224;-90
2022/09/27 03:30:36;;;;;;;5.00;3.50;;;9.50;99.90;;;;;;4986197;28;20227;-91
2022/09/27 03:33:04;;;;;;;5.13;3.60;;;9.50;99.90;;;;;;4984769;28;20216;-92
2022/09/27 03:35:40;;;;;;;3.80;3.20;;;9.50;99.90;;;;;;5004134;28;20278;-91
2022/09/27 03:38:07;;;;;;;3.97;3.10;;;9.60;99.90;;;;;;4986648;28;20222;-91
2022/09/27 03:40:36;;;;;;;3.90;3.53;;;9.50;99.90;;;;;;5003594;28;20212;-92
2022/09/27 03:43:03;;;;;;;3.73;3.03;;;9.50;99.90;;;;;;5000789;28;20268;-91
2022/09/27 03:45:31;;;;;;;3.90;3.20;;;9.60;99.90;;;;;;5002811;28;20249;-91
2022/09/27 03:48:02;;;;;;;4.23;3.07;;;9.50;99.90;;;;;;4998724;28;20220;-93
2022/09/27 03:50:29;;;;;;;3.47;3.17;;;9.50;99.90;;;;;;4984982;28;20210;-92
2022/09/27 03:52:55;;;;;;;3.97;3.30;;;9.50;99.90;;;;;;5001501;28;20244;-92
2022/09/27 03:55:23;;;;;;;4.00;3.60;;;9.50;99.90;;;;;;4985763;28;20229;-90
2022/09/27 03:57:52;;;;;;;3.77;3.20;;;9.50;99.90;;;;;;4998060;28;20243;-91
2022/09/27 04:00:20;;;;;;;3.50;3.00;;;9.50;99.90;;;;;;4998297;28;20239;-91
2022/09/27 04:02:47;;;;;;;3.43;3.13;;;9.50;99.90;;;;;;4980486;28;20232;-92
2022/09/27 04:05:23;;;;;;;3.40;3.10;;;9.50;99.90;;;;;;5001609;28;20253;-92
2022/09/27 04:07:54;;;;;;;3.60;3.30;;;9.50;99.90;;;;;;4985142;28;20218;-91
2022/09/27 04:10:22;;;;;;;3.27;2.97;;;9.50;99.90;;;;;;4984047;28;20274;-92
2022/09/27 04:12:52;;;;;;;3.37;3.07;;;9.50;99.90;;;;;;5000354;28;20232;-92
2022/09/27 04:15:21;;;;;;;3.50;3.07;;;9.50;99.90;;;;;;5004027;28;20215;-91
2022/09/27 04:18:08;;;;;;;4.03;3.60;;;9.50;99.90;;;;;;5002692;28;20220;-92
2022/09/27 04:20:36;;;;;;;4.03;3.50;;;9.50;99.90;;;;;;5002956;28;20220;-93
2022/09/27 04:23:14;;;;;;;3.50;3.20;;;9.50;99.90;;;;;;4985197;28;20229;-91
2022/09/27 04:25:48;;;;;;;4.20;3.80;;;9.60;99.90;;;;;;5006271;28;20235;-91
2022/09/27 04:28:39;;;;;;;3.90;3.50;;;9.50;99.90;;;;;;4999870;28;20251;-91
2022/09/27 04:31:06;;;;;;;4.07;3.67;;;9.60;99.90;;;;;;4987966;28;20263;-91
2022/09/27 04:33:53;;;;;;;4.93;3.53;;;9.60;99.90;;;;;;4992130;28;20220;-91
2022/09/27 04:36:26;;;;;;;10.63;4.03;;;9.60;99.90;;;;;;5004420;28;20267;-92
2022/09/27 04:39:09;;;;;;;4.43;4.03;;;9.60;99.90;;;;;;4985060;28;20212;-91
2022/09/27 04:41:44;;;;;;;8.70;4.37;;;9.60;99.90;;;;;;5001310;28;20220;-92
2022/09/27 04:44:12;;;;;;;36.83;6.00;;;9.50;99.90;;;;;;4999516;28;20217;-95
2022/09/27 04:46:42;;;;;;;4.40;4.00;;;9.60;99.90;;;;;;4999515;28;20207;-95
2022/09/27 04:49:10;;;;;;;4.03;3.60;;;9.60;99.90;;;;;;5001709;28;20219;-96
2022/09/27 04:51:38;;;;;;;11.50;4.50;;;9.60;99.90;;;;;;4990035;28;20365;-96
2022/09/27 04:54:07;;;;;;;5.50;4.17;;;9.60;99.90;;;;;;4987914;28;20225;-96
2022/09/27 04:56:47;;;;;;;9.27;4.37;;;9.70;99.90;;;;;;4987084;28;20242;-95
2022/09/27 04:59:16;;;;;;;11.73;4.60;;;9.60;99.90;;;;;;5003182;28;20286;-96
2022/09/27 05:01:44;;;;;;;5.33;4.20;;;9.70;99.90;;;;;;4988241;28;20225;-96
2022/09/27 05:04:33;;;;;;;7.17;4.30;;;9.60;99.90;;;;;;5003718;28;20216;-95
2022/09/27 05:07:01;;;;;;;3.80;3.50;;;9.70;99.90;;;;;;4998537;28;20249;-95
2022/09/27 05:09:47;;;;;;;5.77;3.97;;;9.70;99.90;;;;;;4993894;28;20227;-95
2022/09/27 05:12:14;;;;;;;4.70;4.20;;;9.70;99.90;;;;;;5076622;23;20250;-84
2022/09/27 05:15:14;;;;;;;9.00;4.90;;;9.70;99.90;;;;;;5043401;28;20226;-85
2022/09/27 05:18:00;;;;;;;4.60;4.20;;;9.70;99.90;;;;;;5041255;28;20225;-85
2022/09/27 05:20:46;;;;;;;5.43;4.60;;;9.70;99.90;;;;;;5040281;28;20249;-85
2022/09/27 05:23:19;;;;;;;6.07;4.03;;;9.70;99.90;;;;;;5042202;28;20771;-85
2022/09/27 05:25:46;;;;;;;5.20;4.70;;;9.70;99.90;;;;;;5048142;28;20227;-85
2022/09/27 05:28:12;;;;;;;7.63;4.97;;;9.70;99.90;;;;;;5048987;28;20676;-85
2022/09/27 05:30:41;;;;;;;5.20;4.43;;;9.70;99.90;;;;;;5064226;28;20226;-85
2022/09/27 05:33:14;;;;;;;5.93;4.93;;;9.70;99.90;;;;;;5063923;28;20223;-85
2022/09/27 05:35:52;;;;;;;5.57;4.97;;;9.70;99.90;;;;;;5045820;28;20232;-84
2022/09/27 05:38:20;;;;;;;5.47;4.90;;;9.70;99.90;;;;;;5061081;28;20749;-85
2022/09/27 05:40:50;;;;;;;7.53;4.63;;;9.70;99.90;;;;;;5061334;28;20650;-85
2022/09/27 05:43:17;;;;;;;5.40;4.90;;;9.70;99.90;;;;;;5045011;28;20450;-85
2022/09/27 05:45:45;;;;;;;5.53;5.03;;;9.70;99.90;;;;;;5061824;28;20638;-84
2022/09/27 05:48:14;;;;;;;5.33;4.70;;;9.70;99.90;;;;;;5064509;28;20217;-84
2022/09/27 05:51:10;;;;;;;10.17;5.20;;;9.70;99.90;;;;;;5047033;28;20230;-85
2022/09/27 05:53:39;;;;;;;6.33;5.73;;;9.70;99.90;;;;;;5065594;28;20393;-86
2022/09/27 05:56:11;;;;;;;6.20;5.60;;;9.70;99.90;;;;;;5044927;28;20221;-86
2022/09/27 05:58:57;;;;;;;8.20;6.70;;;9.70;99.90;;;;;;5051324;28;20827;-86
2022/09/27 06:01:28;;;;;;;7.90;6.70;;;9.80;99.90;;;;;;5044561;28;20227;-86
2022/09/27 06:04:15;;;;;;;7.40;6.27;;;9.80;99.90;;;;;;5043098;28;20225;-86
2022/09/27 06:06:57;;;;;;;8.00;6.93;;;9.80;99.90;;;;;;5049489;28;20215;-86
2022/09/27 06:09:27;;;;;;;8.17;7.10;;;9.80;99.90;;;;;;5038870;28;20235;-86
2022/09/27 06:11:54;;;;;;;8.77;6.50;;;9.80;99.90;;;;;;5045508;28;20224;-86
2022/09/27 06:14:21;;;;;;;7.00;6.30;;;9.80;99.90;;;;;;5063965;28;20307;-86
2022/09/27 06:16:58;;;;;;;7.50;6.80;;;9.80;99.90;;;;;;5020833;28;20225;-86
2022/09/27 06:19:29;;;;;;;7.10;6.40;;;9.80;99.90;;;;;;5057355;28;20223;-86
2022/09/27 06:21:56;;;;;;;7.70;6.67;;;9.80;99.90;;;;;;5062777;28;20231;-86
2022/09/27 06:24:27;;;;;;;7.60;6.87;;;9.90;99.90;;;;;;5061927;28;20314;-86
2022/09/27 06:26:54;;;;;;;9.30;6.77;;;9.90;99.90;;;;;;5045995;28;20227;-86
2022/09/27 06:29:34;;;;;;;9.60;6.93;;;9.90;99.90;;;;;;5044716;28;20695;-85
2022/09/27 06:32:02;;;;;;;9.93;7.77;;;10.00;99.90;;;;;;5043031;28;20582;-85
2022/09/27 06:34:47;;;;;;;11.03;8.23;;;10.00;99.90;;;;;;5058683;28;20302;-86
2022/09/27 06:37:15;;;;;;;11.40;8.73;;;10.00;99.90;;;;;;5042069;28;20393;-86
2022/09/27 06:39:41;;;;;;;12.57;8.90;;;10.00;99.90;;;;;;5048951;28;20234;-86
2022/09/27 06:42:34;;;;;;;10.23;8.90;;;10.00;99.90;;;;;;5042918;28;20774;-85
2022/09/27 06:45:10;;;;;;;13.90;9.43;;;10.00;99.90;;;;;;5044950;28;20655;-86
2022/09/27 06:48:12;;;;;;;11.90;8.40;;;10.10;99.90;;;;;;5042881;28;20721;-86
2022/09/27 06:50:47;;;;;;;9.50;7.20;;;10.10;99.90;;;;;;5058622;28;20212;-84
2022/09/27 06:53:16;;;;;;;8.37;7.27;;;10.10;99.90;;;;;;5043210;28;20307;-85
2022/09/27 06:55:43;;;;;;;13.67;5.87;;;10.10;99.90;;;;;;5043871;28;20312;-85
2022/09/27 07:01:15;;;;;;;8.40;5.80;;;10.10;99.90;;;;;;5052066;28;20224;-88
2022/09/27 07:04:02;;;;;;;8.10;5.77;;;10.10;99.90;;;;;;5052587;28;20223;-82
2022/09/27 07:06:49;;;;;;;9.00;5.70;;;10.10;99.90;;;;;;5038551;28;20972;-84
2022/09/27 07:09:24;;;;;;;8.20;6.53;;;10.10;99.90;;;;;;5070665;28;20241;-83
2022/09/27 07:11:54;;;;;;;8.43;5.93;;;10.10;99.90;;;;;;5067577;28;20226;-84
2022/09/27 07:14:20;;;;;;;7.77;5.87;;;10.00;99.90;;;;;;5067139;28;20296;-84
2022/09/27 07:16:47;;;;;;;7.33;5.70;;;10.10;99.90;;;;;;5049790;28;20591;-83
2022/09/27 07:19:17;;;;;;;5.67;4.13;;;10.10;99.90;;;;;;5067915;28;20225;-83
2022/09/27 07:21:44;;;;;;;6.17;3.87;;;10.10;99.90;;;;;;5065713;28;20249;-83
2022/09/27 07:24:11;;;;;;;5.83;3.60;;;10.10;99.90;;;;;;5051073;28;20222;-84
2022/09/27 07:26:39;;;;;;;3.23;2.93;;;10.10;99.90;;;;;;5050274;28;20314;-83
2022/09/27 07:29:08;;;;;;;3.90;2.67;;;10.10;99.90;;;;;;5048904;28;20618;-83
2022/09/27 07:31:35;;;;;;;4.83;2.53;;;10.10;99.90;;;;;;5066167;28;20234;-84
2022/09/27 07:34:02;;;;;;;4.83;2.40;;;10.10;99.90;;;;;;5050164;28;20726;-83
2022/09/27 07:36:31;;;;;;;2.50;2.30;;;10.10;99.90;;;;;;5048288;28;20239;-83
2022/09/27 07:38:58;;;;;;;4.10;2.60;;;10.10;99.90;;;;;;5065180;28;20229;-83
2022/09/27 07:41:26;;;;;;;4.17;2.50;;;10.10;99.90;;;;;;5061536;28;20231;-83
2022/09/27 07:43:53;;;;;;;3.47;1.93;;;10.10;99.90;;;;;;5061968;28;20243;-85
2022/09/27 07:46:21;;;;;;;3.67;2.00;;;10.10;99.90;;;;;;5060621;28;20233;-86
2022/09/27 07:48:52;;;;;;;2.20;1.57;;;10.10;99.90;;;;;;5050393;28;20246;-83
2022/09/27 07:51:59;;;;;;;2.57;1.40;;;10.20;99.90;;;;;;5054381;28;20292;-83
2022/09/27 07:54:48;;;;;;;2.23;1.20;;;10.10;99.90;;;;;;5058996;28;20226;-84
2022/09/27 07:57:30;;;;;;;1.83;1.00;;;10.20;99.90;;;;;;5064366;28;20682;-84
2022/09/27 07:59:58;;;;;;;1.80;0.93;;;10.20;99.90;;;;;;5074433;28;20674;-85
2022/09/27 08:02:25;;;;;;;2.60;1.17;;;10.20;99.90;;;;;;5064995;28;20289;-83
2022/09/27 08:04:54;;;;;;;3.03;1.00;;;10.20;99.90;;;;;;5060324;28;20299;-86
2022/09/27 08:07:23;;;;;;;0.87;0.70;;;10.30;99.90;;;;;;5044674;28;20383;-86
2022/09/27 08:09:52;;;;;;;1.13;0.73;;;10.30;99.90;;;;;;5042107;28;20254;-86
2022/09/27 08:12:20;;;;;;;1.23;0.80;;;10.30;99.90;;;;;;5043857;28;20680;-87
2022/09/27 08:14:47;;;;;;;1.90;0.80;;;10.30;99.90;;;;;;5047778;28;20227;-86
2022/09/27 08:17:13;;;;;;;2.93;1.17;;;10.40;99.90;;;;;;5039661;28;20239;-89
2022/09/27 08:20:05;;;;;;;3.70;2.13;;;10.50;99.90;;;;;;5046335;28;20230;-88
2022/09/27 08:23:03;;;;;;;2.30;1.00;;;10.60;99.90;;;;;;5061688;28;20697;-85
2022/09/27 08:25:40;;;;;;;1.97;1.03;;;10.70;99.90;;;;;;5043835;28;20241;-87
2022/09/27 08:28:23;;;;;;;1.57;1.10;;;10.70;99.90;;;;;;5065541;28;20225;-86
2022/09/27 08:30:58;;;;;;;2.47;1.00;;;10.80;99.90;;;;;;5048185;28;20288;-85
2022/09/27 08:33:25;;;;;;;2.50;1.10;;;10.80;99.90;;;;;;5049585;28;21458;-85
2022/09/27 08:35:52;;;;;;;1.83;1.10;;;10.90;99.90;;;;;;5048251;28;20235;-87
2022/09/27 08:38:21;;;;;;;3.07;1.20;;;10.90;99.90;;;;;;5059314;28;20227;-86
2022/09/27 08:40:54;;;;;;;2.20;1.10;;;11.00;99.90;;;;;;5040260;28;20764;-86
2022/09/27 08:43:32;;;;;;;1.80;1.10;;;11.00;99.90;;;;;;5047319;28;20285;-85
2022/09/27 08:46:10;;;;;;;2.67;1.20;;;11.00;99.90;;;;;;5061649;28;20765;-87
2022/09/27 08:48:39;;;;;;;2.60;0.77;;;11.10;99.90;;;;;;5043689;28;21781;-84
2022/09/27 08:51:10;;;;;;;1.73;0.90;;;11.10;99.90;;;;;;5042101;28;20211;-83
2022/09/27 08:53:46;;;;;;;2.80;1.10;;;11.10;99.90;;;;;;5050557;28;20881;-86
2022/09/27 08:56:19;;;;;;;2.13;0.80;;;11.20;99.90;;;;;;5041795;28;20229;-85
2022/09/27 08:58:55;;;;;;;1.47;0.90;;;11.20;99.90;;;;;;5061283;28;20296;-84
2022/09/27 09:01:31;;;;;;;1.00;0.90;;;11.30;99.90;;;;;;5055606;28;20338;-83
2022/09/27 09:04:12;;;;;;;2.70;1.00;;;11.30;99.90;;;;;;5042477;28;20222;-83
2022/09/27 09:06:48;;;;;;;4.27;1.30;;;11.30;99.90;;;;;;5061171;28;20230;-85
2022/09/27 09:09:26;;;;;;;1.30;0.90;;;11.30;99.90;;;;;;5044372;28;20228;-88
2022/09/27 09:12:47;;;;;;;1.70;0.90;;;11.30;99.90;;;;;;5044203;28;20247;-85
2022/09/27 09:15:31;;;;;;;1.53;0.70;;;11.30;99.90;;;;;;5041902;28;20267;-85
2022/09/27 09:18:20;;;;;;;3.87;0.80;;;11.30;99.90;;;;;;5044619;28;20230;-85
2022/09/27 09:21:22;;;;;;;2.37;0.90;;;11.30;99.90;;;;;;5042817;28;20231;-86
2022/09/27 09:24:07;;;;;;;2.63;0.93;;;11.30;99.90;;;;;;5042048;28;20426;-85
2022/09/27 09:26:42;;;;;;;2.13;0.70;;;11.20;99.90;;;;;;5041208;28;20602;-88
2022/09/27 09:29:25;;;;;;;2.27;1.27;;;11.30;99.90;;;;;;5042230;28;20234;-86
2022/09/27 09:32:01;;;;;;;3.87;1.20;;;11.20;99.90;;;;;;5059155;28;20231;-85
2022/09/27 09:34:35;;;;;;;1.97;1.07;;;11.20;99.90;;;;;;5058720;28;20269;-88
2022/09/27 09:37:05;;;;;;;2.10;1.03;;;11.20;99.90;;;;;;5062118;28;20249;-86
2022/09/27 09:39:38;;;;;;;2.60;1.17;;;11.10;99.90;;;;;;5045804;28;20223;-86
2022/09/27 09:42:12;;;;;;;2.83;1.23;;;11.10;99.90;;;;;;5060942;28;20232;-86
2022/09/27 09:44:47;;;;;;;1.13;1.10;;;10.90;99.90;;;;;;5059705;28;20878;-86
2022/09/27 09:47:26;;;;;;;1.90;1.30;;;10.90;99.90;;;;;;5061358;28;20249;-85
2022/09/27 09:49:59;;;;;;;2.03;1.40;;;10.80;99.90;;;;;;5045080;28;20770;-85
2022/09/27 09:52:39;;;;;;;4.93;1.77;;;10.80;99.90;;;;;;5039115;28;20238;-85
2022/09/27 09:55:13;;;;;;;3.37;1.23;;;10.70;99.90;;;;;;5058079;28;20223;-85
2022/09/27 09:57:48;;;;;;;3.97;1.20;;;10.70;99.90;;;;;;5036157;28;20253;-86
2022/09/27 10:00:21;;;;;;;1.50;1.30;;;10.70;99.90;;;;;;5042247;28;20222;-84
2022/09/27 10:02:53;;;;;;;5.73;1.03;;;10.60;99.90;;;;;;5063378;28;20226;-87
2022/09/27 10:05:23;;;;;;;1.23;1.00;;;10.60;99.90;;;;;;5052548;28;20238;-84
2022/09/27 10:08:01;;;;;;;2.80;0.97;;;10.60;99.90;;;;;;5050269;28;20228;-85
2022/09/27 10:10:29;;;;;;;2.40;1.10;;;10.60;99.90;;;;;;5050572;28;20267;-88
2022/09/27 10:13:19;;;;;;;1.00;0.90;;;10.60;99.90;;;;;;5052579;28;20231;-85
2022/09/27 10:16:01;;;;;;;2.20;0.70;;;10.60;99.90;;;;;;5048940;28;20692;-85
2022/09/27 10:18:28;;;;;;;1.77;0.90;;;10.50;99.90;;;;;;5063708;28;20218;-85
2022/09/27 10:20:59;;;;;;;1.60;0.87;;;10.50;99.90;;;;;;5066884;28;20223;-86
2022/09/27 10:23:27;;;;;;;2.93;1.20;;;10.50;99.90;;;;;;5061644;28;20243;-86
2022/09/27 10:26:07;;;;;;;1.90;1.10;;;10.50;99.90;;;;;;5050841;28;20221;-85
2022/09/27 10:28:47;;;;;;;2.57;1.07;;;10.50;99.90;;;;;;5063996;28;20231;-85
2022/09/27 10:31:20;;;;;;;1.50;1.00;;;10.50;99.90;;;;;;5070103;28;20213;-86
2022/09/27 10:34:00;;;;;;;2.50;1.10;;;10.50;99.90;;;;;;5061476;28;20664;-85
2022/09/27 10:36:29;;;;;;;1.47;1.00;;;10.50;99.90;;;;;;5063621;28;20297;-85
2022/09/27 10:39:00;;;;;;;2.00;0.93;;;10.50;99.90;;;;;;5048153;28;20645;-84
2022/09/27 10:41:40;;;;;;;1.50;0.90;;;10.50;99.90;;;;;;5059549;28;20230;-85
2022/09/27 10:44:25;;;;;;;1.30;0.70;;;10.50;99.90;;;;;;5067386;28;20247;-84
2022/09/27 10:47:07;;;;;;;0.90;0.70;;;10.50;99.90;;;;;;5049920;28;20214;-85
2022/09/27 10:49:42;;;;;;;1.23;0.77;;;10.50;99.90;;;;;;5070957;28;20229;-84
2022/09/27 10:52:23;;;;;;;1.40;1.10;;;10.50;99.90;;;;;;5063375;28;20265;-85
2022/09/27 10:54:56;;;;;;;0.87;0.80;;;10.50;99.90;;;;;;5043877;28;20491;-85
2022/09/27 10:57:25;;;;;;;1.73;1.03;;;10.50;99.90;;;;;;5063547;28;20218;-85
2022/09/27 10:59:56;;;;;;;2.87;1.00;;;10.50;99.90;;;;;;5061082;28;20250;-85
2022/09/27 11:02:27;;;;;;;3.43;1.10;;;10.60;99.90;;;;;;5059282;28;20272;-85
2022/09/27 11:05:08;;;;;;;1.00;0.73;;;10.60;99.90;;;;;;5048050;28;20237;-86
2022/09/27 11:07:35;;;;;;;1.63;0.90;;;10.60;99.90;;;;;;5044755;28;20227;-85
2022/09/27 11:10:23;;;;;;;1.53;1.00;;;10.60;99.90;;;;;;5048499;28;20231;-86
2022/09/27 11:13:07;;;;;;;0.80;0.80;;;10.70;99.90;;;;;;5050720;28;20317;-85
2022/09/27 11:15:49;;;;;;;1.93;0.90;;;10.70;99.90;;;;;;5051569;28;20226;-85
2022/09/27 11:18:25;;;;;;;1.23;0.80;;;10.80;99.90;;;;;;5059877;28;20687;-85
2022/09/27 11:21:00;;;;;;;2.00;1.17;;;10.90;99.90;;;;;;5044101;28;20223;-85
2022/09/27 11:23:37;;;;;;;1.47;0.93;;;11.00;99.90;;;;;;5056530;28;20345;-85
2022/09/27 11:26:32;;;;;;;1.63;0.97;;;11.10;99.90;;;;;;5058865;28;20319;-85
2022/09/27 11:29:11;;;;;;;2.37;0.80;;;11.20;99.90;;;;;;5060224;28;20228;-85
2022/09/27 11:32:14;;;;;;;1.93;1.10;;;11.30;99.90;;;;;;5039985;28;20224;-86
2022/09/27 11:35:25;;;;;;;1.43;0.80;;;11.40;99.90;;;;;;5050431;28;20224;-85
2022/09/27 11:38:02;;;;;;;1.50;0.90;;;11.50;99.90;;;;;;5064278;28;21175;-84
2022/09/27 11:40:46;;;;;;;0.80;0.80;;;11.60;99.90;;;;;;5041746;28;20285;-84
2022/09/27 11:43:31;;;;;;;1.17;0.90;;;11.70;99.90;;;;;;5065601;28;20228;-86
2022/09/27 11:46:09;;;;;;;1.43;0.80;;;11.70;99.90;;;;;;5055262;28;20254;-84
2022/09/27 11:49:06;;;;;;;1.33;0.70;;;11.80;99.90;;;;;;5049601;28;20227;-84
2022/09/27 11:51:59;;;;;;;1.17;0.70;;;11.80;99.90;;;;;;5066391;28;20225;-85
2022/09/27 11:54:50;;;;;;;0.97;0.70;;;11.90;99.90;;;;;;5066413;28;20224;-84
2022/09/27 11:57:25;;;;;;;1.80;0.70;;;11.90;99.90;;;;;;5062100;28;20220;-84
2022/09/27 12:00:17;;;;;;;1.27;1.00;;;11.90;99.90;;;;;;5067556;28;20285;-84
2022/09/27 12:03:25;;;;;;;2.60;1.20;;;11.80;99.90;;;;;;5059775;28;20224;-84
2022/09/27 12:06:13;;;;;;;1.50;0.53;;;11.90;99.90;;;;;;5043224;28;20231;-85
2022/09/27 12:09:02;;;;;;;2.40;0.70;;;11.90;99.90;;;;;;5061859;28;20262;-84
2022/09/27 12:11:37;;;;;;;1.57;0.60;;;11.90;99.90;;;;;;5062614;28;20225;-85
2022/09/27 12:14:08;;;;;;;0.80;0.80;;;11.90;99.90;;;;;;5063997;28;20688;-84
2022/09/27 12:16:38;;;;;;;0.80;0.80;;;11.90;99.90;;;;;;5050249;28;20585;-84
2022/09/27 12:19:14;;;;;;;1.10;0.70;;;11.90;99.90;;;;;;5059203;28;20227;-84
2022/09/27 12:22:04;;;;;;;1.20;0.80;;;11.90;99.90;;;;;;5043214;28;20635;-84
2022/09/27 12:24:33;;;;;;;0.87;0.70;;;12.00;99.90;;;;;;5044707;28;20227;-85
2022/09/27 12:27:14;;;;;;;1.57;0.60;;;12.10;99.90;;;;;;5070574;28;21029;-84
2022/09/27 12:29:44;;;;;;;1.93;0.70;;;12.20;99.90;;;;;;5047567;28;20220;-84
2022/09/27 12:32:17;;;;;;;1.37;0.80;;;12.30;99.90;;;;;;5058765;28;20244;-87
2022/09/27 12:34:52;;;;;;;1.60;0.97;;;12.50;99.90;;;;;;5048051;28;20226;-84
2022/09/27 12:37:26;;;;;;;1.50;1.00;;;12.70;99.90;;;;;;5047177;28;20364;-85
2022/09/27 12:39:59;;;;;;;0.90;0.70;;;13.00;99.90;;;;;;5059842;28;20218;-84
2022/09/27 12:42:36;;;;;;;2.87;0.77;;;13.20;99.90;;;;;;5049307;28;20222;-85
2022/09/27 12:45:12;;;;;;;1.80;0.60;;;13.40;99.90;;;;;;5062915;28;20528;-85
2022/09/27 12:48:01;;;;;;;1.33;0.60;;;13.50;99.90;;;;;;5045311;28;20231;-85
2022/09/27 12:50:34;;;;;;;0.87;0.63;;;13.70;99.90;;;;;;5061551;28;20225;-84
2022/09/27 12:53:12;;;;;;;1.40;0.60;;;13.80;99.90;;;;;;5044989;28;20222;-86
2022/09/27 12:56:09;;;;;;;1.80;0.60;;;13.80;99.90;;;;;;5055058;28;20255;-85
2022/09/27 12:58:55;;;;;;;1.20;0.50;;;13.80;99.90;;;;;;5056004;28;20310;-85
2022/09/27 13:01:36;;;;;;;0.83;0.50;;;13.80;99.90;;;;;;5049877;28;20244;-84
2022/09/27 13:04:24;;;;;;;1.93;0.53;;;13.80;99.90;;;;;;5038395;28;20334;-85
2022/09/27 13:07:03;;;;;;;0.90;0.47;;;13.80;99.90;;;;;;5040011;28;20598;-84
2022/09/27 13:10:02;;;;;;;1.87;0.60;;;13.80;99.90;;;;;;5062311;28;20624;-85
2022/09/27 13:12:31;;;;;;;0.97;0.50;;;13.80;99.90;;;;;;5048663;28;20286;-83
2022/09/27 13:15:02;;;;;;;0.87;0.50;;;13.80;99.90;;;;;;5050754;28;20223;-83
2022/09/27 13:17:52;;;;;;;1.43;0.43;;;13.70;99.90;;;;;;5055582;28;20238;-84
2022/09/27 13:20:47;;;;;;;0.77;0.53;;;13.70;99.90;;;;;;5041974;28;20241;-83
2022/09/27 13:24:00;;;;;;;0.90;0.60;;;13.60;99.90;;;;;;5054166;28;20223;-83
2022/09/27 13:26:48;;;;;;;3.23;0.80;;;13.60;99.90;;;;;;5028128;28;20229;-84
2022/09/27 13:29:29;;;;;;;0.67;0.50;;;13.60;99.90;;;;;;5054842;28;20325;-82
2022/09/27 13:32:27;;;;;;;0.80;0.60;;;13.50;99.90;;;;;;5059577;28;20224;-82
2022/09/27 13:35:19;;;;;;;0.60;0.50;;;13.40;99.90;;;;;;5045683;28;20757;-83
2022/09/27 13:37:55;;;;;;;1.43;0.60;;;13.30;99.90;;;;;;5047904;28;20227;-83
2022/09/27 13:40:48;;;;;;;1.63;0.53;;;13.10;99.90;;;;;;5060775;28;20229;-83